Time;durP1;ratioP1;P1;durP2;ratioP2;P2;SDS_P1;SDS_P2;PMS_P1;PMS_P2;Temp;Humidity;BMP_temperature;BMP_pressure;BME280_temperature;BME280_humidity;BME280_pressure;Samples;Min_cycle;Max_cycle;Signal;HPM_P1;HPM_P2
2022/09/09 00:02:02;;;;;;;8.88;5.28;;;16.40;99.90;;;;;;5107297;27;37301;-60
2022/09/09 00:04:31;;;;;;;9.55;6.05;;;16.40;99.90;;;;;;5107304;27;35473;-60
2022/09/09 00:07:05;;;;;;;7.80;5.82;;;16.40;99.90;;;;;;5108477;27;38641;-59
2022/09/09 00:09:41;;;;;;;8.30;5.40;;;16.30;99.90;;;;;;5106673;27;36642;-59
2022/09/09 00:12:13;;;;;;;8.75;5.95;;;16.30;99.90;;;;;;5107074;27;38357;-59
2022/09/09 00:14:48;;;;;;;10.88;6.03;;;16.30;99.90;;;;;;5106020;27;36767;-59
2022/09/09 00:17:23;;;;;;;12.60;7.10;;;16.30;99.90;;;;;;5104781;27;37875;-59
2022/09/09 00:19:58;;;;;;;9.30;5.72;;;16.40;99.90;;;;;;5107658;27;36464;-59
2022/09/09 00:22:28;;;;;;;9.07;6.10;;;16.40;99.90;;;;;;5107490;27;36191;-59
2022/09/09 00:25:10;;;;;;;9.80;6.25;;;16.40;99.90;;;;;;5108283;27;36609;-59
2022/09/09 00:27:45;;;;;;;9.93;6.85;;;16.40;99.90;;;;;;5106980;27;37331;-59
2022/09/09 00:30:19;;;;;;;13.98;6.35;;;16.40;99.90;;;;;;5105795;27;39140;-59
2022/09/09 00:32:47;;;;;;;10.65;6.95;;;16.40;99.90;;;;;;5106920;27;37075;-59
2022/09/09 00:35:23;;;;;;;9.25;6.38;;;16.30;99.90;;;;;;5107442;27;37323;-59
2022/09/09 00:37:53;;;;;;;11.13;6.25;;;16.30;99.90;;;;;;5107620;27;37577;-59
2022/09/09 00:40:32;;;;;;;8.30;5.78;;;16.30;99.90;;;;;;5108405;27;36483;-59
2022/09/09 00:43:17;;;;;;;9.27;6.32;;;16.30;99.90;;;;;;5107177;27;37339;-59
2022/09/09 00:46:14;;;;;;;9.75;5.78;;;16.30;99.90;;;;;;5106293;27;36811;-59
2022/09/09 00:48:52;;;;;;;11.82;6.43;;;16.20;99.90;;;;;;5107881;27;37526;-59
2022/09/09 00:51:27;;;;;;;12.13;6.38;;;16.20;99.90;;;;;;5107255;27;37592;-59
2022/09/09 00:54:17;;;;;;;9.57;6.03;;;16.20;99.90;;;;;;5107188;27;37440;-59
2022/09/09 00:56:58;;;;;;;8.35;6.45;;;16.20;99.90;;;;;;5102948;27;37338;-59
2022/09/09 00:59:36;;;;;;;11.18;7.07;;;16.10;99.90;;;;;;5104883;27;36970;-59
2022/09/09 01:02:09;;;;;;;13.23;7.03;;;16.10;99.90;;;;;;5105281;27;37995;-60
2022/09/09 01:04:37;;;;;;;;;;;16.10;99.90;;;;;;5105021;27;37889;-60
2022/09/09 01:07:11;;;;;;;8.82;5.72;;;16.10;99.90;;;;;;5105462;27;36582;-59
2022/09/09 01:09:46;;;;;;;8.80;6.13;;;16.10;99.90;;;;;;5105493;27;36437;-59
2022/09/09 01:12:17;;;;;;;10.32;5.75;;;16.10;99.90;;;;;;5104421;27;37673;-59
2022/09/09 01:14:48;;;;;;;9.98;6.47;;;16.00;99.90;;;;;;5104199;27;36258;-60
2022/09/09 01:17:21;;;;;;;10.60;5.57;;;16.00;99.90;;;;;;5104334;27;35416;-59
2022/09/09 01:20:00;;;;;;;10.95;6.18;;;16.00;99.90;;;;;;5104180;27;38674;-60
2022/09/09 01:22:37;;;;;;;7.38;5.07;;;16.00;99.90;;;;;;5105021;27;36581;-59
2022/09/09 01:25:25;;;;;;;11.38;5.10;;;16.00;99.90;;;;;;5104687;27;38310;-59
2022/09/09 01:27:57;;;;;;;12.88;6.25;;;16.00;99.90;;;;;;5103488;27;35415;-59
2022/09/09 01:30:25;;;;;;;9.07;5.30;;;16.00;99.90;;;;;;5103190;27;37453;-59
2022/09/09 01:32:58;;;;;;;11.93;6.32;;;16.00;99.90;;;;;;5105509;27;36672;-59
2022/09/09 01:35:35;;;;;;;9.30;4.93;;;15.90;99.90;;;;;;5102113;27;37334;-59
2022/09/09 01:38:03;;;;;;;9.80;5.13;;;15.90;99.90;;;;;;5103806;27;36465;-60
2022/09/09 01:40:30;;;;;;;8.10;4.82;;;15.80;99.90;;;;;;5103340;27;37635;-59
2022/09/09 01:42:59;;;;;;;10.30;4.88;;;15.80;99.90;;;;;;5103272;27;38519;-59
2022/09/09 01:45:26;;;;;;;8.32;4.68;;;15.80;99.90;;;;;;5105661;27;37543;-59
2022/09/09 01:47:54;;;;;;;14.15;4.85;;;15.80;99.90;;;;;;5105779;27;37145;-59
2022/09/09 01:50:22;;;;;;;8.57;4.82;;;15.80;99.90;;;;;;5106383;27;37368;-59
2022/09/09 01:52:54;;;;;;;9.18;5.20;;;15.70;99.90;;;;;;5106501;27;36750;-59
2022/09/09 01:55:29;;;;;;;6.17;4.03;;;15.80;99.90;;;;;;5106232;27;37952;-59
2022/09/09 01:58:09;;;;;;;10.80;5.45;;;15.70;99.90;;;;;;5106606;27;36564;-59
2022/09/09 02:00:42;;;;;;;9.23;4.95;;;15.80;99.90;;;;;;5104685;27;38274;-59
2022/09/09 02:03:20;;;;;;;8.35;4.90;;;15.70;99.90;;;;;;5105834;27;38134;-58
2022/09/09 02:05:56;;;;;;;11.98;5.20;;;15.80;99.90;;;;;;5105512;27;38136;-59
2022/09/09 02:08:29;;;;;;;15.73;5.15;;;15.70;99.90;;;;;;5103889;27;36532;-59
2022/09/09 02:11:02;;;;;;;11.38;5.20;;;15.70;99.90;;;;;;5104437;27;38091;-59
2022/09/09 02:13:35;;;;;;;8.02;5.30;;;15.80;99.90;;;;;;5106055;27;37860;-59
2022/09/09 02:16:07;;;;;;;9.35;5.45;;;15.80;99.90;;;;;;5106560;27;38081;-59
2022/09/09 02:18:40;;;;;;;8.75;5.60;;;15.80;99.90;;;;;;5104977;27;35459;-59
2022/09/09 02:21:10;;;;;;;9.00;5.93;;;15.80;99.90;;;;;;5104911;27;38584;-59
2022/09/09 02:23:39;;;;;;;9.48;5.93;;;15.80;99.90;;;;;;5103930;27;37760;-59
2022/09/09 02:26:08;;;;;;;9.43;5.55;;;15.80;99.90;;;;;;5105900;27;37522;-59
2022/09/09 02:28:39;;;;;;;10.43;6.45;;;15.80;99.90;;;;;;5104565;27;36612;-60
2022/09/09 02:31:07;;;;;;;12.10;6.50;;;15.80;99.90;;;;;;5104858;27;38291;-60
2022/09/09 02:33:40;;;;;;;10.32;7.20;;;15.80;99.90;;;;;;5105410;27;37866;-59
2022/09/09 02:36:09;;;;;;;;;;;15.80;99.90;;;;;;5104952;27;37274;-59
2022/09/09 02:38:42;;;;;;;11.07;5.82;;;15.80;99.90;;;;;;5105991;27;36619;-59
2022/09/09 02:41:10;;;;;;;12.25;6.22;;;15.80;99.90;;;;;;5105571;27;37449;-59
2022/09/09 02:43:38;;;;;;;11.23;6.43;;;15.80;99.90;;;;;;5105055;27;38300;-59
2022/09/09 02:46:17;;;;;;;11.95;6.65;;;15.90;99.90;;;;;;5105237;27;37509;-59
2022/09/09 02:48:54;;;;;;;10.90;7.10;;;15.90;99.90;;;;;;5103609;27;36432;-59
2022/09/09 02:51:30;;;;;;;10.20;6.57;;;15.90;99.90;;;;;;5104609;27;37808;-60
2022/09/09 02:54:05;;;;;;;12.50;7.07;;;15.90;99.90;;;;;;5102372;27;40210;-59
2022/09/09 02:56:37;;;;;;;10.93;6.78;;;15.90;99.90;;;;;;5103616;27;37633;-59
2022/09/09 02:59:06;;;;;;;10.35;6.80;;;15.90;99.90;;;;;;5102855;27;36875;-59
2022/09/09 03:01:35;;;;;;;10.38;6.25;;;15.90;99.90;;;;;;5102399;27;36425;-59
2022/09/09 03:04:04;;;;;;;12.48;7.38;;;16.00;99.90;;;;;;5101910;27;39076;-59
2022/09/09 03:06:32;;;;;;;11.95;7.07;;;16.00;99.90;;;;;;5101752;27;38913;-59
2022/09/09 03:09:01;;;;;;;10.93;6.43;;;15.90;99.90;;;;;;5103826;27;35387;-59
2022/09/09 03:11:29;;;;;;;10.70;6.30;;;15.90;99.90;;;;;;5103132;27;39528;-59
2022/09/09 03:13:56;;;;;;;14.68;7.95;;;16.00;99.90;;;;;;5102412;27;37422;-59
2022/09/09 03:16:25;;;;;;;9.90;6.53;;;15.90;99.90;;;;;;5102140;27;39857;-60
2022/09/09 03:18:52;;;;;;;8.82;6.45;;;15.90;99.90;;;;;;5103802;27;36664;-59
2022/09/09 03:21:20;;;;;;;13.27;7.50;;;15.90;99.90;;;;;;5105407;27;39842;-59
2022/09/09 03:23:48;;;;;;;12.35;6.40;;;15.90;99.90;;;;;;5104890;27;35683;-59
2022/09/09 03:26:15;;;;;;;12.32;6.85;;;16.00;99.90;;;;;;5103819;27;37480;-59
2022/09/09 03:28:43;;;;;;;11.40;7.38;;;16.00;99.90;;;;;;5102474;27;37639;-60
2022/09/09 03:31:10;;;;;;;10.75;6.53;;;15.90;99.90;;;;;;5102103;27;38962;-59
2022/09/09 03:33:40;;;;;;;11.23;6.70;;;16.00;99.90;;;;;;5102271;27;36418;-59
2022/09/09 03:36:09;;;;;;;10.63;6.20;;;16.00;99.90;;;;;;5103983;27;38358;-60
2022/09/09 03:38:36;;;;;;;8.88;5.32;;;16.00;99.90;;;;;;5103393;27;36730;-59
2022/09/09 03:41:07;;;;;;;9.40;5.00;;;16.00;99.90;;;;;;5101857;27;36394;-59
2022/09/09 03:43:36;;;;;;;8.50;4.85;;;16.00;99.90;;;;;;5102688;27;38606;-59
2022/09/09 03:46:03;;;;;;;9.27;4.60;;;16.00;99.90;;;;;;5102990;27;37349;-59
2022/09/09 03:48:30;;;;;;;22.02;5.50;;;16.00;99.90;;;;;;5104134;27;36411;-59
2022/09/09 03:51:01;;;;;;;8.48;4.18;;;16.00;99.90;;;;;;5104664;27;38595;-59
2022/09/09 03:53:29;;;;;;;6.97;4.05;;;16.00;99.90;;;;;;5104484;27;39376;-59
2022/09/09 03:55:59;;;;;;;8.48;4.20;;;16.00;99.90;;;;;;5108681;27;37582;-59
2022/09/09 03:58:27;;;;;;;12.63;4.80;;;16.00;99.90;;;;;;5104613;27;36523;-59
2022/09/09 04:00:57;;;;;;;7.45;3.75;;;16.00;99.90;;;;;;5103597;27;36223;-59
2022/09/09 04:03:25;;;;;;;12.00;3.80;;;16.00;99.90;;;;;;5103859;27;37873;-59
2022/09/09 04:05:53;;;;;;;6.55;4.15;;;16.00;99.90;;;;;;5104006;27;38821;-59
2022/09/09 04:08:24;;;;;;;7.07;3.55;;;16.00;99.90;;;;;;5104322;27;37344;-59
2022/09/09 04:10:51;;;;;;;8.90;4.20;;;16.00;99.90;;;;;;5103217;27;37419;-59
2022/09/09 04:13:20;;;;;;;9.63;4.72;;;16.10;99.90;;;;;;5104026;27;37701;-59
2022/09/09 04:15:52;;;;;;;8.77;4.28;;;16.10;99.90;;;;;;5104175;27;37250;-59
2022/09/09 04:18:20;;;;;;;9.98;3.75;;;16.10;99.90;;;;;;5104455;27;36764;-59
2022/09/09 04:20:48;;;;;;;6.97;3.88;;;16.10;99.90;;;;;;5104049;27;37399;-59
2022/09/09 04:23:16;;;;;;;7.80;3.92;;;16.10;99.90;;;;;;5102867;27;37926;-59
2022/09/09 04:25:48;;;;;;;11.65;4.45;;;16.10;99.90;;;;;;5102086;27;37466;-59
2022/09/09 04:28:16;;;;;;;9.05;4.10;;;16.10;99.90;;;;;;5103645;27;36509;-59
2022/09/09 04:30:44;;;;;;;9.68;4.15;;;16.10;99.90;;;;;;5103661;27;37456;-60
2022/09/09 04:33:12;;;;;;;7.32;3.92;;;16.10;99.90;;;;;;5106995;27;36649;-59
2022/09/09 04:35:40;;;;;;;7.35;3.72;;;16.10;99.90;;;;;;5106903;27;37998;-60
2022/09/09 04:38:09;;;;;;;9.35;4.13;;;16.10;99.90;;;;;;5106128;27;38254;-59
2022/09/09 04:40:36;;;;;;;8.10;4.38;;;16.10;99.90;;;;;;5105100;27;39259;-59
2022/09/09 04:43:05;;;;;;;9.80;4.30;;;16.10;99.90;;;;;;5108112;27;39672;-59
2022/09/09 04:45:33;;;;;;;8.93;4.40;;;16.10;99.90;;;;;;5106842;27;37950;-59
2022/09/09 04:48:00;;;;;;;7.53;4.22;;;16.10;99.90;;;;;;5107659;27;36609;-59
2022/09/09 04:50:28;;;;;;;8.75;4.55;;;16.10;99.90;;;;;;5106948;27;36372;-59
2022/09/09 04:52:55;;;;;;;7.15;3.83;;;16.10;99.90;;;;;;5107344;27;37938;-59
2022/09/09 04:55:22;;;;;;;8.57;4.35;;;16.10;99.90;;;;;;5107371;27;38452;-59
2022/09/09 04:57:50;;;;;;;12.57;4.03;;;16.10;99.90;;;;;;5107715;27;35109;-59
2022/09/09 05:00:19;;;;;;;7.43;3.60;;;16.10;99.90;;;;;;5107661;27;39698;-59
2022/09/09 05:02:47;;;;;;;7.72;4.68;;;16.10;99.90;;;;;;5106731;27;39775;-59
2022/09/09 05:05:14;;;;;;;8.00;4.22;;;16.10;99.90;;;;;;5106148;27;39231;-59
2022/09/09 05:07:43;;;;;;;10.98;4.25;;;16.10;99.90;;;;;;5107575;27;38322;-59
2022/09/09 05:10:10;;;;;;;9.30;4.95;;;16.10;99.90;;;;;;5106002;27;38584;-59
2022/09/09 05:12:37;;;;;;;8.10;4.53;;;16.10;99.90;;;;;;5105445;27;38103;-59
2022/09/09 05:15:06;;;;;;;10.00;4.40;;;16.10;99.90;;;;;;5107136;27;39400;-59
2022/09/09 05:17:35;;;;;;;10.82;4.70;;;16.10;99.90;;;;;;5105127;27;37556;-60
2022/09/09 05:20:03;;;;;;;9.20;4.18;;;16.10;99.90;;;;;;5105457;27;38467;-59
2022/09/09 05:22:31;;;;;;;9.30;4.60;;;16.10;99.90;;;;;;5104823;27;37306;-59
2022/09/09 05:24:58;;;;;;;7.20;4.43;;;16.10;99.90;;;;;;5105075;27;37339;-59
2022/09/09 05:27:25;;;;;;;9.15;4.65;;;16.10;99.90;;;;;;5101606;27;37126;-59
2022/09/09 05:29:53;;;;;;;9.48;5.03;;;16.10;99.90;;;;;;5106322;27;37498;-59
2022/09/09 05:32:20;;;;;;;11.02;5.90;;;16.10;99.90;;;;;;5104434;27;38767;-59
2022/09/09 05:34:48;;;;;;;11.98;5.80;;;16.10;99.90;;;;;;5103981;27;39674;-59
2022/09/09 05:37:16;;;;;;;9.00;5.53;;;16.00;99.90;;;;;;5103232;27;36358;-59
2022/09/09 05:39:43;;;;;;;11.70;6.10;;;16.00;99.90;;;;;;5105921;27;38366;-59
2022/09/09 05:42:11;;;;;;;11.95;6.40;;;16.00;99.90;;;;;;5103777;27;38327;-59
2022/09/09 05:44:38;;;;;;;10.75;6.20;;;16.10;99.90;;;;;;5105494;27;37513;-59
2022/09/09 05:47:06;;;;;;;11.20;6.30;;;16.00;99.90;;;;;;5102594;27;37517;-59
2022/09/09 05:49:33;;;;;;;9.05;5.70;;;16.00;99.90;;;;;;5103179;27;36308;-59
2022/09/09 05:52:03;;;;;;;12.98;7.05;;;16.00;99.90;;;;;;5103626;27;37776;-60
2022/09/09 05:54:32;;;;;;;12.00;7.05;;;16.00;99.90;;;;;;5103939;27;37821;-60
2022/09/09 05:56:59;;;;;;;15.23;8.15;;;16.10;99.90;;;;;;5105058;27;37022;-60
2022/09/09 05:59:27;;;;;;;10.30;6.60;;;16.10;99.90;;;;;;5105055;27;37685;-60
2022/09/09 06:01:54;;;;;;;10.05;5.90;;;16.10;99.90;;;;;;5106104;27;38685;-59
2022/09/09 06:04:24;;;;;;;13.15;6.88;;;16.10;99.90;;;;;;5106801;27;37889;-60
2022/09/09 06:06:51;;;;;;;9.02;6.18;;;16.10;99.90;;;;;;5106654;27;37356;-59
2022/09/09 06:09:20;;;;;;;8.90;6.30;;;16.20;99.90;;;;;;5104667;27;38164;-60
2022/09/09 06:11:47;;;;;;;10.40;6.10;;;16.10;99.90;;;;;;5104738;27;38768;-58
2022/09/09 06:14:14;;;;;;;12.88;6.78;;;16.10;99.90;;;;;;5105035;27;37545;-58
2022/09/09 06:16:43;;;;;;;10.68;5.97;;;16.10;99.90;;;;;;5105996;27;36553;-58
2022/09/09 06:19:12;;;;;;;10.35;6.78;;;16.10;99.90;;;;;;5101426;27;37728;-58
2022/09/09 06:21:40;;;;;;;9.98;7.10;;;16.20;99.90;;;;;;5101035;27;37814;-58
2022/09/09 06:24:08;;;;;;;9.23;5.70;;;16.20;99.90;;;;;;5100815;27;37252;-58
2022/09/09 06:26:40;;;;;;;8.73;5.68;;;16.10;99.90;;;;;;5102167;27;36640;-58
2022/09/09 06:29:08;;;;;;;9.43;5.97;;;16.20;99.90;;;;;;5101525;27;39129;-58
2022/09/09 06:31:37;;;;;;;10.70;6.45;;;16.20;99.90;;;;;;5101693;27;37724;-58
2022/09/09 06:34:07;;;;;;;10.48;6.60;;;16.20;99.90;;;;;;5102532;27;37713;-58
2022/09/09 06:36:36;;;;;;;9.02;6.28;;;16.20;99.90;;;;;;5101887;27;35996;-58
2022/09/09 06:39:04;;;;;;;9.63;6.15;;;16.20;99.90;;;;;;5100981;27;38626;-58
2022/09/09 06:41:33;;;;;;;9.57;5.95;;;16.30;99.90;;;;;;5102124;27;37619;-58
2022/09/09 06:44:03;;;;;;;9.65;6.43;;;16.30;99.90;;;;;;5100332;27;38010;-58
2022/09/09 06:46:32;;;;;;;9.48;6.25;;;16.30;99.90;;;;;;5102366;27;37574;-58
2022/09/09 06:49:00;;;;;;;11.48;6.22;;;16.30;99.90;;;;;;5101570;27;38172;-58
2022/09/09 06:51:30;;;;;;;12.13;5.90;;;16.30;99.90;;;;;;5102245;27;37747;-58
2022/09/09 06:53:58;;;;;;;8.00;5.40;;;16.30;99.90;;;;;;5100688;27;36473;-58
2022/09/09 06:56:28;;;;;;;10.77;5.68;;;16.30;99.90;;;;;;5100708;27;37785;-58
2022/09/09 06:58:58;;;;;;;10.13;5.85;;;16.30;99.90;;;;;;5101737;27;38850;-58
2022/09/09 07:01:30;;;;;;;10.00;5.82;;;16.30;99.90;;;;;;5099108;27;38166;-58
2022/09/09 07:03:59;;;;;;;9.05;5.28;;;16.30;99.90;;;;;;5099027;27;37542;-58
2022/09/09 07:06:28;;;;;;;8.93;6.05;;;16.40;99.90;;;;;;5099100;27;36436;-58
2022/09/09 07:08:57;;;;;;;12.75;6.40;;;16.40;99.90;;;;;;5099753;27;39294;-58
2022/09/09 07:11:26;;;;;;;9.68;5.30;;;16.40;99.90;;;;;;5097697;27;38566;-58
2022/09/09 07:13:54;;;;;;;8.65;6.05;;;16.40;99.90;;;;;;5099398;27;37014;-58
2022/09/09 07:16:24;;;;;;;8.98;5.72;;;16.40;99.90;;;;;;5098410;27;36106;-58
2022/09/09 07:18:57;;;;;;;11.98;6.18;;;16.40;99.90;;;;;;5099425;27;38120;-58
2022/09/09 07:21:26;;;;;;;9.23;5.43;;;16.40;99.90;;;;;;5099104;27;38403;-58
2022/09/09 07:23:54;;;;;;;7.18;4.97;;;16.40;99.90;;;;;;5100062;27;34311;-58
2022/09/09 07:26:23;;;;;;;7.60;5.40;;;16.40;99.90;;;;;;5097444;27;36717;-58
2022/09/09 07:28:51;;;;;;;10.73;5.80;;;16.40;99.90;;;;;;5098972;27;36415;-58
2022/09/09 07:31:22;;;;;;;9.73;5.13;;;16.40;99.90;;;;;;5098903;27;36562;-58
2022/09/09 07:33:49;;;;;;;9.63;5.05;;;16.40;99.90;;;;;;5099477;27;38419;-58
2022/09/09 07:36:21;;;;;;;8.00;5.38;;;16.40;99.90;;;;;;5100935;27;37235;-58
2022/09/09 07:38:51;;;;;;;7.55;5.32;;;16.40;99.90;;;;;;5099754;27;38495;-58
2022/09/09 07:41:21;;;;;;;7.78;5.18;;;16.40;99.90;;;;;;5100126;27;37736;-58
2022/09/09 07:43:49;;;;;;;8.32;5.25;;;16.50;99.90;;;;;;5101746;27;37672;-58
2022/09/09 07:46:19;;;;;;;10.45;6.75;;;16.40;99.90;;;;;;5102342;27;36623;-58
2022/09/09 07:48:51;;;;;;;9.48;4.95;;;16.50;99.90;;;;;;5101591;27;37563;-58
2022/09/09 07:51:22;;;;;;;9.70;5.95;;;16.60;99.90;;;;;;5101329;27;38974;-58
2022/09/09 07:53:52;;;;;;;10.23;5.70;;;16.60;99.90;;;;;;5101348;27;37341;-58
2022/09/09 07:56:21;;;;;;;13.15;6.13;;;16.60;99.90;;;;;;5101496;27;36328;-58
2022/09/09 07:58:49;;;;;;;10.63;5.78;;;16.60;99.90;;;;;;5101163;27;38827;-58
2022/09/09 08:01:19;;;;;;;8.73;4.32;;;16.70;99.90;;;;;;5099611;27;37789;-58
2022/09/09 08:03:47;;;;;;;11.57;4.93;;;16.70;99.90;;;;;;5098910;27;37315;-58
2022/09/09 08:06:15;;;;;;;10.70;5.20;;;16.70;99.90;;;;;;5101422;27;36564;-58
2022/09/09 08:08:43;;;;;;;9.77;4.88;;;16.80;99.90;;;;;;5103940;27;38238;-58
2022/09/09 08:11:14;;;;;;;8.63;4.85;;;16.80;99.90;;;;;;5103749;27;37526;-58
2022/09/09 08:13:43;;;;;;;8.30;4.57;;;16.90;99.90;;;;;;5105514;27;37190;-58
2022/09/09 08:16:12;;;;;;;8.20;5.55;;;16.90;99.90;;;;;;5105202;27;35166;-58
2022/09/09 08:18:40;;;;;;;11.00;4.60;;;16.90;99.90;;;;;;5104845;27;37205;-58
2022/09/09 08:21:11;;;;;;;9.32;5.00;;;16.90;99.90;;;;;;5103848;27;37608;-58
2022/09/09 08:23:39;;;;;;;7.40;4.53;;;17.00;99.90;;;;;;5105298;27;36269;-58
2022/09/09 08:26:11;;;;;;;7.85;4.85;;;17.00;99.90;;;;;;5105459;27;36711;-58
2022/09/09 08:28:39;;;;;;;8.65;5.00;;;17.00;99.90;;;;;;5104400;27;36401;-58
2022/09/09 08:31:11;;;;;;;15.45;5.53;;;17.00;99.90;;;;;;5103379;27;37527;-58
2022/09/09 08:33:39;;;;;;;10.30;4.77;;;17.00;99.90;;;;;;5104186;27;36346;-58
2022/09/09 08:36:09;;;;;;;8.63;4.82;;;17.10;99.90;;;;;;5103891;27;35500;-58
2022/09/09 08:38:37;;;;;;;9.82;4.53;;;17.10;99.90;;;;;;5102373;27;37717;-58
2022/09/09 08:41:33;;;;;;;7.13;4.32;;;17.10;99.90;;;;;;5103830;27;36247;-58
2022/09/09 08:44:06;;;;;;;7.88;3.97;;;17.10;99.90;;;;;;5097912;27;37376;-58
2022/09/09 08:46:37;;;;;;;;;;;17.20;99.90;;;;;;5105898;27;36657;-58
2022/09/09 08:49:14;;;;;;;8.73;4.03;;;17.20;99.90;;;;;;5103760;27;37632;-58
2022/09/09 08:51:42;;;;;;;8.65;4.90;;;17.20;99.90;;;;;;5103152;27;38520;-58
2022/09/09 08:54:10;;;;;;;8.52;4.00;;;17.20;99.90;;;;;;5104247;27;36156;-58
2022/09/09 08:56:39;;;;;;;7.75;3.95;;;17.20;99.90;;;;;;5103946;27;35467;-58
2022/09/09 08:59:06;;;;;;;8.73;4.22;;;17.30;99.90;;;;;;5105528;27;37571;-58
2022/09/09 09:01:43;;;;;;;9.27;4.20;;;17.40;99.90;;;;;;5104322;27;37116;-58
2022/09/09 09:04:28;;;;;;;9.90;3.88;;;17.50;99.90;;;;;;5104007;27;38408;-58
2022/09/09 09:07:05;;;;;;;8.13;4.00;;;17.50;99.90;;;;;;5103259;27;37079;-58
2022/09/09 09:09:45;;;;;;;8.27;4.30;;;17.60;99.90;;;;;;5105006;27;37483;-58
2022/09/09 09:12:19;;;;;;;6.38;3.50;;;17.60;99.90;;;;;;5105160;27;37448;-58
2022/09/09 09:14:48;;;;;;;6.72;3.42;;;17.60;99.90;;;;;;5104302;27;37402;-58
2022/09/09 09:17:19;;;;;;;8.05;3.35;;;17.70;99.90;;;;;;5103571;27;36619;-58
2022/09/09 09:19:49;;;;;;;8.95;3.75;;;17.80;99.90;;;;;;5102712;27;37685;-58
2022/09/09 09:22:21;;;;;;;8.65;3.72;;;17.90;99.90;;;;;;5104266;27;38150;-58
2022/09/09 09:24:54;;;;;;;7.60;3.50;;;17.90;99.90;;;;;;5103936;27;36325;-58
2022/09/09 09:27:33;;;;;;;7.32;3.35;;;18.00;99.90;;;;;;5104575;27;36324;-58
2022/09/09 09:30:03;;;;;;;6.70;3.08;;;18.10;99.90;;;;;;5103886;27;39085;-58
2022/09/09 09:32:35;;;;;;;9.30;3.92;;;18.20;99.90;;;;;;5104195;27;38253;-58
2022/09/09 09:35:10;;;;;;;13.27;3.75;;;18.30;99.90;;;;;;5104329;27;37128;-58
2022/09/09 09:37:37;;;;;;;7.57;2.95;;;18.30;99.90;;;;;;5104657;27;37834;-58
2022/09/09 09:40:15;;;;;;;10.35;3.08;;;18.40;99.90;;;;;;5104752;27;37330;-58
2022/09/09 09:42:52;;;;;;;9.70;3.55;;;18.40;99.90;;;;;;5101593;27;37910;-58
2022/09/09 09:45:29;;;;;;;10.48;2.78;;;18.50;99.90;;;;;;5102465;27;36288;-58
2022/09/09 09:48:01;;;;;;;11.05;2.97;;;18.60;99.90;;;;;;5103008;27;36745;-58
2022/09/09 09:50:30;;;;;;;10.25;2.80;;;18.70;99.90;;;;;;5102398;27;36272;-58
2022/09/09 09:52:58;;;;;;;7.57;2.72;;;18.70;99.90;;;;;;5102760;27;37774;-58
2022/09/09 09:55:27;;;;;;;9.82;2.83;;;18.70;99.90;;;;;;5103036;27;36853;-58
2022/09/09 09:58:02;;;;;;;11.15;3.25;;;18.70;99.90;;;;;;5101925;27;35351;-58
2022/09/09 10:00:31;;;;;;;10.05;2.30;;;18.70;99.90;;;;;;5102678;27;38390;-58
2022/09/09 10:03:00;;;;;;;9.10;3.00;;;18.60;99.90;;;;;;5102184;27;37642;-58
2022/09/09 10:05:29;;;;;;;8.77;2.38;;;18.50;99.90;;;;;;5102059;27;37361;-58
2022/09/09 10:08:05;;;;;;;9.15;2.97;;;18.50;99.90;;;;;;5102325;27;37981;-58
2022/09/09 10:10:43;;;;;;;9.75;3.00;;;18.40;99.90;;;;;;5102260;27;38278;-58
2022/09/09 10:13:19;;;;;;;9.48;2.65;;;18.40;99.90;;;;;;5101742;27;37924;-58
2022/09/09 10:15:54;;;;;;;7.55;2.30;;;18.40;99.90;;;;;;5103326;27;36731;-58
2022/09/09 10:18:37;;;;;;;11.40;2.90;;;18.40;99.90;;;;;;5102445;27;35535;-59
2022/09/09 10:21:16;;;;;;;7.03;2.25;;;18.40;99.90;;;;;;5103073;27;37637;-58
2022/09/09 10:24:03;;;;;;;12.25;3.17;;;18.30;99.90;;;;;;5103548;27;37569;-58
2022/09/09 10:26:40;;;;;;;10.00;2.90;;;18.30;99.90;;;;;;5104111;27;37222;-58
2022/09/09 10:29:33;;;;;;;8.60;2.80;;;18.30;99.90;;;;;;5103532;27;36892;-58
2022/09/09 10:32:16;;;;;;;7.18;2.47;;;18.30;99.90;;;;;;5103047;27;39045;-58
2022/09/09 10:34:56;;;;;;;9.38;2.45;;;18.30;99.90;;;;;;5104332;27;36601;-58
2022/09/09 10:37:36;;;;;;;12.40;2.78;;;18.30;99.90;;;;;;5103288;27;37368;-58
2022/09/09 10:40:21;;;;;;;8.60;2.38;;;18.40;99.90;;;;;;5104429;27;36185;-58
2022/09/09 10:42:48;;;;;;;10.32;2.63;;;18.50;99.90;;;;;;5103507;27;37696;-58
2022/09/09 10:45:22;;;;;;;6.75;1.80;;;18.60;99.90;;;;;;5104057;27;38095;-58
2022/09/09 10:48:16;;;;;;;6.72;1.90;;;18.70;99.90;;;;;;5103667;27;37892;-58
2022/09/09 10:50:53;;;;;;;8.40;2.17;;;18.90;99.90;;;;;;5103981;27;36418;-59
2022/09/09 10:53:31;;;;;;;9.05;1.85;;;19.00;99.90;;;;;;5104136;27;37588;-58
2022/09/09 10:56:04;;;;;;;10.48;2.22;;;19.00;99.90;;;;;;5103195;27;36371;-58
2022/09/09 10:58:39;;;;;;;8.00;1.80;;;19.10;99.90;;;;;;5102856;27;37307;-58
2022/09/09 11:01:16;;;;;;;8.02;1.77;;;19.10;99.90;;;;;;5102607;27;37380;-58
2022/09/09 11:03:47;;;;;;;6.60;2.20;;;19.10;99.90;;;;;;5101120;27;38473;-58
2022/09/09 11:06:19;;;;;;;10.98;2.50;;;19.10;99.90;;;;;;5102279;27;36584;-58
2022/09/09 11:08:47;;;;;;;7.20;2.28;;;19.00;99.90;;;;;;5102095;27;39186;-58
2022/09/09 11:11:20;;;;;;;8.88;1.65;;;19.00;99.90;;;;;;5101895;27;36652;-58
2022/09/09 11:13:55;;;;;;;6.65;1.83;;;19.00;99.90;;;;;;5099996;27;38119;-58
2022/09/09 11:16:29;;;;;;;7.18;2.03;;;19.00;99.90;;;;;;5102242;27;37644;-58
2022/09/09 11:19:02;;;;;;;7.70;1.98;;;19.10;99.90;;;;;;5099383;27;38449;-58
2022/09/09 11:21:34;;;;;;;9.07;2.10;;;19.30;99.90;;;;;;5092014;27;36472;-57
2022/09/09 11:24:09;;;;;;;6.03;1.77;;;19.30;99.90;;;;;;5098959;27;37627;-58
2022/09/09 11:26:41;;;;;;;8.10;1.80;;;19.30;99.90;;;;;;5096993;27;37856;-58
2022/09/09 11:29:33;;;;;;;10.48;2.17;;;19.30;99.90;;;;;;5096857;27;37192;-58
2022/09/09 11:32:13;;;;;;;6.45;2.03;;;19.30;99.90;;;;;;5096824;27;37205;-58
2022/09/09 11:34:53;;;;;;;7.25;2.03;;;19.40;99.90;;;;;;5097362;27;38412;-58
2022/09/09 11:37:37;;;;;;;7.60;1.70;;;19.40;99.90;;;;;;5096966;27;36495;-58
2022/09/09 11:40:19;;;;;;;5.63;1.48;;;19.50;99.90;;;;;;5095945;27;37246;-58
2022/09/09 11:42:49;;;;;;;7.35;1.67;;;19.50;99.90;;;;;;5095679;27;36628;-58
2022/09/09 11:45:25;;;;;;;6.22;1.40;;;19.50;99.90;;;;;;5096364;27;38657;-58
2022/09/09 11:47:55;;;;;;;5.40;1.40;;;19.40;99.90;;;;;;5096965;27;37593;-58
2022/09/09 11:50:32;;;;;;;6.85;1.50;;;19.40;99.90;;;;;;5095570;27;38057;-58
2022/09/09 11:53:23;;;;;;;6.28;1.73;;;19.30;99.90;;;;;;5097167;27;35210;-58
2022/09/09 11:56:08;;;;;;;8.85;1.85;;;19.30;99.90;;;;;;5095100;27;37976;-58
2022/09/09 11:58:42;;;;;;;7.53;1.42;;;19.30;99.90;;;;;;5097093;27;38146;-58
2022/09/09 12:01:16;;;;;;;;;;;19.40;99.90;;;;;;5096723;27;37696;-58
2022/09/09 12:03:48;;;;;;;6.65;1.60;;;19.50;99.90;;;;;;5096923;27;36898;-58
2022/09/09 12:06:20;;;;;;;7.45;1.58;;;19.70;99.90;;;;;;5093278;27;38671;-58
2022/09/09 12:08:54;;;;;;;6.70;1.30;;;19.70;99.90;;;;;;5097387;27;40485;-58
2022/09/09 12:11:26;;;;;;;6.30;1.98;;;19.70;99.90;;;;;;5094183;27;37114;-58
2022/09/09 12:13:55;;;;;;;7.88;1.40;;;19.70;99.90;;;;;;5099145;27;37775;-58
2022/09/09 12:16:34;;;;;;;6.80;1.65;;;19.70;99.90;;;;;;5097140;27;38133;-58
2022/09/09 12:19:14;;;;;;;7.20;1.60;;;19.60;99.90;;;;;;5097795;27;38687;-58
2022/09/09 12:21:48;;;;;;;8.18;1.88;;;19.60;99.90;;;;;;5100194;27;36177;-59
2022/09/09 12:24:25;;;;;;;5.50;1.38;;;19.60;99.90;;;;;;5102327;27;35381;-58
2022/09/09 12:26:59;;;;;;;9.45;1.85;;;19.60;99.90;;;;;;5101673;27;37523;-58
2022/09/09 12:29:36;;;;;;;7.95;2.13;;;19.60;99.90;;;;;;5100844;27;37990;-58
2022/09/09 12:32:08;;;;;;;6.82;1.70;;;19.60;99.90;;;;;;5096509;27;36233;-58
2022/09/09 12:34:40;;;;;;;5.78;1.55;;;19.60;99.90;;;;;;5098272;27;36373;-58
2022/09/09 12:37:19;;;;;;;7.45;1.70;;;19.50;99.90;;;;;;5099004;27;38027;-58
2022/09/09 12:39:51;;;;;;;6.97;1.40;;;19.50;99.90;;;;;;5102661;27;38603;-58
2022/09/09 12:42:20;;;;;;;5.20;1.23;;;19.50;99.90;;;;;;5099930;27;38009;-58
2022/09/09 12:44:55;;;;;;;11.98;1.90;;;19.50;99.90;;;;;;5099798;27;36466;-58
2022/09/09 12:47:33;;;;;;;8.90;1.95;;;19.60;99.90;;;;;;5098795;27;38569;-58
2022/09/09 12:50:02;;;;;;;6.82;1.70;;;19.60;99.90;;;;;;5100779;27;37651;-58
2022/09/09 12:52:33;;;;;;;6.50;1.60;;;19.60;99.90;;;;;;5099992;27;37845;-58
2022/09/09 12:55:02;;;;;;;7.85;1.70;;;19.60;99.90;;;;;;5102265;27;36556;-58
2022/09/09 12:57:34;;;;;;;9.30;1.98;;;19.60;99.90;;;;;;5102471;27;38406;-58
2022/09/09 13:00:15;;;;;;;5.93;1.40;;;19.60;99.90;;;;;;5099452;27;37480;-58
2022/09/09 13:02:51;;;;;;;6.55;1.83;;;19.70;99.90;;;;;;5100549;27;38622;-58
2022/09/09 13:05:23;;;;;;;7.75;1.27;;;19.70;99.90;;;;;;5102678;27;36900;-58
2022/09/09 13:07:50;;;;;;;4.40;1.63;;;19.70;99.90;;;;;;5102229;27;38402;-58
2022/09/09 13:10:26;;;;;;;7.15;1.45;;;19.80;99.90;;;;;;5097618;27;38024;-58